createdAt,value
2017-09-20T00:00:04.753Z,7.97
2017-09-20T00:02:32.335Z,8.17
2017-09-20T00:04:59.907Z,8.13
2017-09-20T00:07:27.472Z,11.95
2017-09-20T00:09:55.041Z,10.27
2017-09-20T00:12:22.960Z,9.90
2017-09-20T00:14:50.529Z,11.50
2017-09-20T00:17:18.085Z,11.37
2017-09-20T00:19:45.669Z,11.43
2017-09-20T00:22:13.239Z,10.40
2017-09-20T00:24:41.666Z,10.30
2017-09-20T00:27:09.212Z,9.80
2017-09-20T00:29:36.757Z,11.80
2017-09-20T00:32:04.901Z,14.83
2017-09-20T00:34:32.449Z,11.00
2017-09-20T00:37:01.640Z,11.67
2017-09-20T00:39:29.213Z,11.27
2017-09-20T00:41:56.764Z,10.83
2017-09-20T00:44:24.726Z,11.73
2017-09-20T00:46:52.935Z,12.10
2017-09-20T00:49:20.494Z,10.97
2017-09-20T00:51:48.433Z,11.90
2017-09-20T00:54:16.024Z,13.50
2017-09-20T00:56:43.593Z,12.10
2017-09-20T00:59:11.514Z,12.80
2017-09-20T01:01:39.077Z,15.73
2017-09-20T01:04:06.643Z,15.67
2017-09-20T01:06:34.249Z,15.37
2017-09-20T01:09:01.821Z,14.13
2017-09-20T01:11:29.416Z,13.40
2017-09-20T01:13:57.097Z,14.83
2017-09-20T01:16:24.672Z,14.30
2017-09-20T01:18:52.249Z,15.77
2017-09-20T01:21:32.059Z,16.37
2017-09-20T01:23:59.654Z,16.80
2017-09-20T01:26:27.217Z,15.53
2017-09-20T01:28:54.965Z,18.00
2017-09-20T01:31:22.635Z,17.30
2017-09-20T01:33:50.769Z,14.57
2017-09-20T01:36:18.327Z,19.00
2017-09-20T01:38:46.383Z,18.57
2017-09-20T01:41:13.977Z,19.43
2017-09-20T01:43:41.557Z,24.80
2017-09-20T01:46:09.488Z,18.17
2017-09-20T01:48:37.049Z,17.07
2017-09-20T01:51:04.613Z,16.53
2017-09-20T01:53:32.201Z,15.90
2017-09-20T01:55:59.751Z,16.63
2017-09-20T01:58:27.696Z,18.70
2017-09-20T02:00:55.259Z,18.23
2017-09-20T02:03:22.803Z,17.07
2017-09-20T02:05:50.378Z,17.30
2017-09-20T02:08:17.939Z,18.07
2017-09-20T02:10:45.935Z,19.97
2017-09-20T02:13:13.685Z,21.23
2017-09-20T02:15:42.816Z,19.47
2017-09-20T02:18:10.458Z,23.00
2017-09-20T02:20:38.007Z,21.20
2017-09-20T02:23:05.958Z,21.58
2017-09-20T02:25:33.506Z,23.03
2017-09-20T02:28:01.183Z,19.63
2017-09-20T02:30:28.765Z,21.67
2017-09-20T02:32:56.386Z,21.10
2017-09-20T02:35:24.262Z,19.77
2017-09-20T02:37:51.827Z,26.43
2017-09-20T02:40:19.384Z,21.43
2017-09-20T02:42:46.966Z,21.00
2017-09-20T02:45:14.527Z,19.63
2017-09-20T02:47:42.472Z,19.83
2017-09-20T02:50:10.044Z,19.60
2017-09-20T02:52:37.691Z,19.43
2017-09-20T02:55:05.465Z,20.07
2017-09-20T02:57:33.028Z,21.20
2017-09-20T03:00:00.998Z,25.50
2017-09-20T03:02:28.555Z,23.20
2017-09-20T03:04:56.129Z,30.70
2017-09-20T03:07:24.078Z,28.50
2017-09-20T03:09:51.631Z,27.90
2017-09-20T03:12:19.902Z,29.57
2017-09-20T03:14:47.486Z,28.13
2017-09-20T03:17:15.039Z,28.10
2017-09-20T03:19:42.935Z,28.60
2017-09-20T03:22:10.708Z,34.43
2017-09-20T03:24:38.268Z,30.80
2017-09-20T03:27:05.851Z,29.30
2017-09-20T03:29:33.487Z,29.83
2017-09-20T03:32:01.314Z,31.37
2017-09-20T03:34:28.874Z,32.10
2017-09-20T03:36:56.445Z,29.80
2017-09-20T03:39:24.022Z,28.70
2017-09-20T03:41:56.637Z,33.47
2017-09-20T03:44:24.512Z,40.40
2017-09-20T03:46:52.085Z,35.93
2017-09-20T03:49:19.651Z,33.47
2017-09-20T03:51:47.221Z,34.70
2017-09-20T03:54:14.791Z,38.50
2017-09-20T03:56:42.763Z,39.37
2017-09-20T03:59:10.356Z,44.70
2017-09-20T04:01:37.927Z,43.73
2017-09-20T04:04:05.509Z,42.67
2017-09-20T04:06:33.052Z,38.17
2017-09-20T04:09:00.960Z,37.17
2017-09-20T04:11:28.542Z,36.93
2017-09-20T04:13:56.084Z,40.47
2017-09-20T04:16:23.653Z,37.07
2017-09-20T04:18:51.234Z,35.30
2017-09-20T04:21:19.148Z,39.20
2017-09-20T04:23:46.712Z,36.73
2017-09-20T04:26:14.322Z,35.50
2017-09-20T04:28:41.898Z,34.93
2017-09-20T04:31:09.464Z,37.30
2017-09-20T04:33:37.377Z,35.97
2017-09-20T04:36:04.977Z,38.60
2017-09-20T04:38:32.566Z,39.67
2017-09-20T04:41:00.162Z,37.77
2017-09-20T04:43:27.706Z,35.83
2017-09-20T04:45:55.534Z,38.73
2017-09-20T04:48:23.080Z,39.93
2017-09-20T04:50:50.631Z,41.73
2017-09-20T04:53:18.566Z,34.77
2017-09-20T04:55:46.174Z,33.97
2017-09-20T04:58:13.773Z,35.77
2017-09-20T05:00:41.666Z,38.33
2017-09-20T05:03:09.233Z,33.37
2017-09-20T05:05:36.766Z,44.93
2017-09-20T05:08:04.325Z,33.10
2017-09-20T05:10:32.034Z,29.93
2017-09-20T05:12:59.961Z,32.77
2017-09-20T05:15:27.521Z,29.57
2017-09-20T05:17:55.098Z,29.40
2017-09-20T05:20:22.705Z,33.83
2017-09-20T05:22:50.262Z,30.27
2017-09-20T05:25:18.172Z,33.67
2017-09-20T05:27:45.744Z,31.27
2017-09-20T05:30:13.321Z,32.70
2017-09-20T05:32:40.895Z,29.73
2017-09-20T05:35:08.461Z,33.50
2017-09-20T05:37:36.342Z,33.27
2017-09-20T05:40:03.925Z,32.70
2017-09-20T05:42:31.544Z,31.27
2017-09-20T05:44:59.177Z,30.90
2017-09-20T05:47:26.739Z,33.17
2017-09-20T05:49:54.608Z,32.03
2017-09-20T05:52:22.178Z,32.77
2017-09-20T05:54:49.753Z,29.90
2017-09-20T05:57:17.323Z,37.50
2017-09-20T05:59:44.901Z,31.47
2017-09-20T06:02:12.819Z,35.30
2017-09-20T06:04:40.385Z,31.07
2017-09-20T06:07:07.945Z,34.87
2017-09-20T06:09:35.525Z,32.73
2017-09-20T06:12:03.103Z,29.70
2017-09-20T06:14:31.001Z,36.20
2017-09-20T06:16:58.561Z,31.83
2017-09-20T06:19:26.121Z,34.03
2017-09-20T06:21:53.705Z,31.27
2017-09-20T06:24:21.256Z,33.70
2017-09-20T06:26:49.118Z,38.60
2017-09-20T06:29:16.695Z,35.00
2017-09-20T06:31:44.257Z,36.53
2017-09-20T06:34:11.900Z,37.60
2017-09-20T06:36:39.504Z,39.03
2017-09-20T06:39:07.403Z,35.13
2017-09-20T06:41:34.981Z,37.20
2017-09-20T06:44:02.534Z,35.47
2017-09-20T06:46:30.134Z,38.97
2017-09-20T06:48:57.738Z,38.63
2017-09-20T06:51:25.596Z,36.33
2017-09-20T06:53:53.170Z,37.33
2017-09-20T06:56:20.769Z,37.30
2017-09-20T06:58:49.395Z,38.80
2017-09-20T07:01:17.012Z,41.37
2017-09-20T07:03:44.590Z,39.80
2017-09-20T07:06:12.162Z,36.60
2017-09-20T07:08:39.847Z,40.00
2017-09-20T07:11:09.004Z,46.40
2017-09-20T07:13:36.566Z,45.23
2017-09-20T07:16:04.309Z,54.60
2017-09-20T07:18:31.903Z,45.80
2017-09-20T07:20:59.545Z,43.10
2017-09-20T07:23:27.411Z,45.90
2017-09-20T07:25:55.098Z,45.33
2017-09-20T07:28:22.834Z,41.93
2017-09-20T07:30:50.441Z,41.90
2017-09-20T07:33:18.016Z,46.10
2017-09-20T07:35:45.911Z,40.93
2017-09-20T07:38:13.480Z,45.10
2017-09-20T07:40:41.084Z,49.37
2017-09-20T07:43:08.687Z,49.23
2017-09-20T07:45:36.254Z,51.00
2017-09-20T07:48:04.151Z,46.90
2017-09-20T07:50:31.735Z,43.63
2017-09-20T07:52:59.401Z,47.03
2017-09-20T07:55:27.125Z,46.13
2017-09-20T07:57:54.683Z,46.67
2017-09-20T08:00:22.589Z,48.00
2017-09-20T08:02:50.137Z,46.07
2017-09-20T08:05:17.707Z,42.90
2017-09-20T08:07:45.431Z,47.87
2017-09-20T08:10:12.994Z,45.33
2017-09-20T08:12:40.896Z,48.80
2017-09-20T08:15:08.457Z,46.47
2017-09-20T08:17:36.039Z,48.63
2017-09-20T08:20:03.926Z,47.17
2017-09-20T08:22:31.555Z,45.43
2017-09-20T08:24:59.158Z,43.70
2017-09-20T08:27:27.057Z,46.37
2017-09-20T08:29:54.678Z,40.67
2017-09-20T08:32:22.285Z,40.43
2017-09-20T08:34:50.249Z,37.97
2017-09-20T08:37:17.827Z,36.47
2017-09-20T08:39:45.386Z,45.17
2017-09-20T08:42:12.974Z,41.43
2017-09-20T08:44:40.552Z,35.20
2017-09-20T08:47:08.552Z,35.77
2017-09-20T08:49:36.105Z,31.30
2017-09-20T08:52:03.679Z,33.57
2017-09-20T08:54:31.294Z,31.23
2017-09-20T08:56:59.004Z,34.07
2017-09-20T08:59:26.998Z,33.83
2017-09-20T09:01:54.576Z,37.57
2017-09-20T09:04:22.169Z,36.73
2017-09-20T09:06:49.791Z,37.77
2017-09-20T09:09:17.367Z,68.77
2017-09-20T09:11:44.997Z,53.80
2017-09-20T09:14:12.544Z,57.23
2017-09-20T09:16:40.114Z,37.37
2017-09-20T09:19:07.712Z,34.20
2017-09-20T09:21:35.332Z,34.80
2017-09-20T09:24:03.270Z,34.63
2017-09-20T09:26:30.834Z,37.40
2017-09-20T09:28:58.387Z,34.13
2017-09-20T09:31:25.974Z,34.70
2017-09-20T09:33:53.576Z,36.53
2017-09-20T09:36:21.278Z,36.40
2017-09-20T09:38:50.252Z,34.77
2017-09-20T09:41:18.246Z,37.03
2017-09-20T09:43:45.825Z,33.07
2017-09-20T09:46:13.372Z,49.47
2017-09-20T09:48:40.969Z,52.10
2017-09-20T09:51:08.788Z,46.73
2017-09-20T09:53:36.384Z,40.58
2017-09-20T09:56:04.129Z,43.07
2017-09-20T09:58:32.412Z,33.10
2017-09-20T10:00:59.947Z,30.07
2017-09-20T10:03:27.537Z,33.97
2017-09-20T10:05:55.120Z,30.63
2017-09-20T10:08:22.672Z,32.97
2017-09-20T10:10:50.311Z,33.10
2017-09-20T10:13:17.888Z,31.33
2017-09-20T10:15:45.474Z,31.30
2017-09-20T10:18:13.050Z,30.93
2017-09-20T10:20:40.926Z,29.20
2017-09-20T10:23:08.643Z,32.40
2017-09-20T10:25:36.203Z,32.87
2017-09-20T10:28:03.792Z,35.73
2017-09-20T10:30:31.379Z,29.40
2017-09-20T10:32:59.020Z,31.40
2017-09-20T10:35:26.574Z,26.10
2017-09-20T10:37:54.165Z,24.67
2017-09-20T10:40:21.746Z,29.03
2017-09-20T10:42:49.699Z,29.53
2017-09-20T10:45:17.257Z,26.57
2017-09-20T10:47:44.811Z,27.10
2017-09-20T10:50:12.399Z,24.17
2017-09-20T10:52:39.956Z,27.63
2017-09-20T10:55:07.556Z,25.77
2017-09-20T10:57:35.248Z,25.10
2017-09-20T11:00:02.882Z,23.03
2017-09-20T11:02:30.533Z,21.90
2017-09-20T11:04:58.467Z,23.00
2017-09-20T11:07:26.044Z,19.07
2017-09-20T11:09:53.645Z,22.30
2017-09-20T11:12:21.236Z,24.03
2017-09-20T11:14:48.815Z,20.80
2017-09-20T11:17:16.405Z,23.40
2017-09-20T11:19:43.997Z,22.00
2017-09-20T11:22:12.065Z,20.30
2017-09-20T11:24:39.609Z,19.03
2017-09-20T11:27:07.615Z,48.83
2017-09-20T11:29:35.201Z,29.53
2017-09-20T11:32:02.908Z,23.07
2017-09-20T11:34:30.488Z,19.43
2017-09-20T11:36:58.066Z,30.27
2017-09-20T11:39:25.625Z,39.10
2017-09-20T11:41:54.327Z,19.10
2017-09-20T11:44:22.304Z,17.30
2017-09-20T11:46:49.922Z,19.90
2017-09-20T11:49:17.736Z,18.27
2017-09-20T11:51:45.365Z,15.60
2017-09-20T11:54:13.005Z,14.70
2017-09-20T11:56:40.639Z,16.17
2017-09-20T11:59:08.304Z,14.17
2017-09-20T12:01:36.642Z,24.40
2017-09-20T12:04:04.274Z,24.27
2017-09-20T12:06:33.942Z,17.57
2017-09-20T12:09:01.549Z,18.57
2017-09-20T12:11:29.104Z,54.53
2017-09-20T12:13:56.685Z,22.27
2017-09-20T12:16:24.290Z,18.70
2017-09-20T12:18:52.416Z,16.90
2017-09-20T12:21:20.012Z,16.87
2017-09-20T12:23:47.694Z,16.83
2017-09-20T12:26:16.242Z,20.20
2017-09-20T12:28:43.887Z,18.90
2017-09-20T12:31:11.495Z,14.43
2017-09-20T12:33:39.096Z,15.53
2017-09-20T12:36:07.093Z,14.53
2017-09-20T12:38:34.640Z,15.20
2017-09-20T12:41:02.252Z,14.33
2017-09-20T12:43:29.837Z,12.93
2017-09-20T12:45:57.545Z,7.20
2017-09-20T12:48:25.420Z,7.40
2017-09-20T12:50:52.951Z,7.13
2017-09-20T12:53:20.534Z,8.33
2017-09-20T12:55:48.192Z,7.77
2017-09-20T12:58:15.774Z,13.03
2017-09-20T13:00:43.531Z,19.57
2017-09-20T13:03:11.230Z,13.40
2017-09-20T13:05:39.550Z,9.53
2017-09-20T13:08:07.140Z,9.67
2017-09-20T13:10:34.720Z,7.93
2017-09-20T13:13:02.332Z,5.90
2017-09-20T13:15:30.146Z,5.10
2017-09-20T13:17:57.745Z,7.30
2017-09-20T13:20:25.339Z,5.80
2017-09-20T13:25:28.813Z,6.27
2017-09-20T13:27:57.054Z,6.50
2017-09-20T13:30:24.613Z,5.67
2017-09-20T13:32:52.225Z,8.80
2017-09-20T13:35:19.828Z,6.13
2017-09-20T13:37:47.386Z,7.33
2017-09-20T13:40:15.016Z,10.90
2017-09-20T13:42:42.582Z,10.03
2017-09-20T13:45:10.200Z,16.87
2017-09-20T13:47:37.766Z,12.50
2017-09-20T13:50:05.689Z,7.90
2017-09-20T13:52:33.253Z,7.00
2017-09-20T13:55:00.849Z,7.33
2017-09-20T13:57:28.413Z,9.27
2017-09-20T13:59:55.972Z,6.77
2017-09-20T14:02:23.569Z,5.77
2017-09-20T14:04:51.124Z,6.90
2017-09-20T14:07:19.120Z,5.07
2017-09-20T14:09:46.693Z,3.97
2017-09-20T14:12:14.428Z,3.43
2017-09-20T14:14:42.057Z,2.87
2017-09-20T14:17:09.654Z,3.90
2017-09-20T14:19:37.595Z,3.57
2017-09-20T14:22:05.196Z,3.57
2017-09-20T14:24:32.764Z,3.40
2017-09-20T14:27:00.397Z,4.70
2017-09-20T14:29:29.080Z,3.53
2017-09-20T14:31:57.055Z,4.67
2017-09-20T14:34:25.038Z,4.20
2017-09-20T14:36:52.604Z,3.80
2017-09-20T14:39:20.251Z,4.37
2017-09-20T14:41:47.823Z,6.33
2017-09-20T14:44:15.860Z,5.00
2017-09-20T14:46:43.457Z,4.77
2017-09-20T14:49:11.047Z,5.10
2017-09-20T14:51:40.471Z,5.37
2017-09-20T14:54:09.310Z,7.67
2017-09-20T14:56:36.896Z,6.37
2017-09-20T14:59:04.483Z,5.63
2017-09-20T15:01:33.098Z,4.60
2017-09-20T15:04:01.921Z,5.63
2017-09-20T15:06:29.693Z,5.60
2017-09-20T15:08:58.378Z,6.50
2017-09-20T15:11:26.129Z,4.87
2017-09-20T15:13:53.716Z,5.83
2017-09-20T15:16:21.313Z,8.90
2017-09-20T15:18:53.460Z,8.87
2017-09-20T15:21:21.041Z,8.10
2017-09-20T15:23:48.783Z,10.20
2017-09-20T15:26:16.373Z,9.60
2017-09-20T15:28:43.924Z,8.20
2017-09-20T15:31:11.891Z,11.60
2017-09-20T15:33:39.451Z,9.10
2017-09-20T15:36:07.005Z,9.93
2017-09-20T15:38:39.123Z,11.23
2017-09-20T15:41:06.726Z,9.63
2017-09-20T15:43:35.955Z,9.10
2017-09-20T15:46:03.541Z,10.00
2017-09-20T15:48:31.116Z,13.83
2017-09-20T15:50:59.170Z,11.30
2017-09-20T15:53:26.798Z,10.87
2017-09-20T15:55:56.400Z,12.10
2017-09-20T15:58:24.011Z,12.43
2017-09-20T16:00:51.642Z,12.17
2017-09-20T16:03:19.239Z,12.53
2017-09-20T16:05:46.878Z,11.80
2017-09-20T16:08:15.529Z,13.87
2017-09-20T16:10:43.163Z,15.07
2017-09-20T16:13:12.240Z,14.83
2017-09-20T16:15:39.773Z,15.40
2017-09-20T16:18:07.454Z,12.73
2017-09-20T16:20:35.038Z,14.27
2017-09-20T16:23:02.613Z,15.37
2017-09-20T16:25:30.507Z,13.03
2017-09-20T16:27:58.094Z,13.63
2017-09-20T16:30:25.662Z,12.30
2017-09-20T16:32:53.326Z,15.87
2017-09-20T16:35:20.892Z,13.27
2017-09-20T16:37:48.819Z,11.97
2017-09-20T16:40:17.245Z,13.87
2017-09-20T16:42:44.815Z,16.83
2017-09-20T16:45:12.433Z,14.70
2017-09-20T16:47:40.142Z,14.60
2017-09-20T16:50:08.061Z,15.87
2017-09-20T16:52:35.682Z,17.97
2017-09-20T16:55:03.269Z,20.10
2017-09-20T16:57:30.905Z,21.03
2017-09-20T16:59:58.510Z,16.30
2017-09-20T17:02:26.268Z,17.57
2017-09-20T17:04:53.861Z,16.80
2017-09-20T17:07:21.633Z,18.93
2017-09-20T17:09:49.224Z,17.70
2017-09-20T17:12:16.960Z,19.23
2017-09-20T17:14:44.693Z,19.13
2017-09-20T17:17:13.472Z,17.77
2017-09-20T17:19:41.248Z,18.80
2017-09-20T17:22:08.893Z,18.00
2017-09-20T17:24:36.549Z,19.63
2017-09-20T17:27:04.619Z,18.57
2017-09-20T17:29:32.311Z,20.23
2017-09-20T17:31:59.927Z,16.93
2017-09-20T17:34:27.818Z,16.40
2017-09-20T17:36:55.374Z,16.60
2017-09-20T17:39:23.819Z,16.70
2017-09-20T17:41:51.434Z,19.70
2017-09-20T17:44:19.824Z,16.63
2017-09-20T17:46:47.465Z,18.47
2017-09-20T17:49:15.019Z,18.40
2017-09-20T17:51:42.633Z,19.47
2017-09-20T17:54:10.201Z,19.30
2017-09-20T17:56:38.108Z,18.37
2017-09-20T17:59:05.684Z,18.93
2017-09-20T18:01:33.400Z,20.83
2017-09-20T18:04:01.053Z,19.57
2017-09-20T18:06:28.686Z,20.17
2017-09-20T18:08:56.292Z,23.90
2017-09-20T18:11:23.890Z,23.40
2017-09-20T18:13:51.755Z,23.73
2017-09-20T18:16:19.345Z,22.43
2017-09-20T18:18:47.045Z,19.70
2017-09-20T18:21:14.650Z,18.00
2017-09-20T18:23:42.252Z,20.20
2017-09-20T18:26:09.884Z,16.10
2017-09-20T18:28:37.515Z,18.90
2017-09-20T18:31:05.339Z,18.37
2017-09-20T18:33:32.923Z,19.70
2017-09-20T18:36:00.728Z,17.43
2017-09-20T18:38:28.608Z,18.60
2017-09-20T18:40:56.248Z,16.93
2017-09-20T18:43:23.843Z,23.53
2017-09-20T18:45:51.473Z,17.80
2017-09-20T18:48:19.113Z,19.57
2017-09-20T18:50:46.694Z,17.10
2017-09-20T18:53:14.495Z,22.73
2017-09-20T18:55:42.118Z,21.30
2017-09-20T18:58:09.780Z,21.73
2017-09-20T19:00:37.636Z,19.00
2017-09-20T19:03:05.238Z,20.90
2017-09-20T19:05:32.870Z,17.97
2017-09-20T19:08:00.459Z,20.17
2017-09-20T19:10:28.058Z,20.77
2017-09-20T19:12:55.664Z,20.27
2017-09-20T19:15:23.291Z,19.60
2017-09-20T19:17:50.921Z,20.07
2017-09-20T19:20:18.545Z,26.00
2017-09-20T19:22:46.210Z,19.40
2017-09-20T19:25:13.870Z,18.90
2017-09-20T19:27:41.598Z,19.80
2017-09-20T19:30:09.196Z,18.10
2017-09-20T19:32:37.235Z,20.57
2017-09-20T19:35:05.030Z,20.33
2017-09-20T19:37:32.763Z,17.30
2017-09-20T19:40:00.431Z,19.50
2017-09-20T19:42:28.061Z,16.27
2017-09-20T19:44:55.716Z,14.80
2017-09-20T19:47:23.374Z,16.10
2017-09-20T19:49:51.018Z,14.07
2017-09-20T19:52:18.704Z,7.93
2017-09-20T19:54:46.316Z,12.23
2017-09-20T19:57:13.923Z,11.70
2017-09-20T19:59:41.956Z,6.97
2017-09-20T20:02:09.526Z,8.55
2017-09-20T20:04:37.323Z,8.13
2017-09-20T20:07:04.986Z,8.93
2017-09-20T20:09:32.611Z,8.83
2017-09-20T20:12:00.275Z,7.10
2017-09-20T20:14:28.042Z,7.23
2017-09-20T20:16:55.662Z,8.87
2017-09-20T20:19:23.330Z,11.00
2017-09-20T20:21:51.221Z,11.60
2017-09-20T20:24:18.802Z,9.23
2017-09-20T20:26:46.374Z,11.60
2017-09-20T20:29:14.008Z,19.23
2017-09-20T20:31:41.605Z,8.70
2017-09-20T20:34:09.214Z,10.70
2017-09-20T20:36:36.798Z,10.23
2017-09-20T20:39:04.456Z,8.33
2017-09-20T20:41:32.027Z,8.03
2017-09-20T20:43:59.624Z,11.30
2017-09-20T20:46:27.187Z,10.20
2017-09-20T20:48:55.144Z,8.80
2017-09-20T20:51:22.723Z,8.17
2017-09-20T20:53:50.294Z,9.10
2017-09-20T20:56:17.886Z,7.73
2017-09-20T20:58:45.690Z,10.30
2017-09-20T21:01:13.417Z,9.30
2017-09-20T21:03:41.061Z,8.60
2017-09-20T21:06:09.578Z,8.83
2017-09-20T21:08:37.192Z,11.33
2017-09-20T21:11:05.182Z,9.03
2017-09-20T21:13:33.664Z,12.70
2017-09-20T21:16:01.239Z,11.63
2017-09-20T21:18:28.885Z,12.20
2017-09-20T21:20:56.453Z,10.63
2017-09-20T21:23:24.061Z,13.73
2017-09-20T21:25:51.646Z,14.33
2017-09-20T21:28:19.247Z,14.20
2017-09-20T21:30:47.493Z,12.33
2017-09-20T21:33:15.374Z,11.93
2017-09-20T21:35:42.969Z,13.97
2017-09-20T21:38:10.579Z,13.80
2017-09-20T21:40:38.277Z,12.50
2017-09-20T21:43:05.857Z,11.27
2017-09-20T21:45:33.456Z,13.83
2017-09-20T21:48:02.149Z,11.73
2017-09-20T21:50:29.762Z,12.90
2017-09-20T21:52:57.360Z,12.10
2017-09-20T21:55:24.951Z,13.90
2017-09-20T21:57:52.714Z,16.47
2017-09-20T22:00:20.677Z,16.00
2017-09-20T22:02:48.276Z,15.27
2017-09-20T22:05:15.830Z,12.20
2017-09-20T22:07:43.969Z,15.00
2017-09-20T22:10:11.646Z,14.50
2017-09-20T22:12:39.226Z,13.17
2017-09-20T22:15:18.464Z,11.90
2017-09-20T22:17:57.900Z,14.03
2017-09-20T22:20:37.410Z,17.30
2017-09-20T22:23:16.917Z,13.33
2017-09-20T22:25:56.333Z,14.47
2017-09-20T22:28:23.935Z,13.60
2017-09-20T22:30:51.613Z,15.13
2017-09-20T22:33:19.312Z,17.43
2017-09-20T22:35:47.544Z,16.80
2017-09-20T22:38:15.384Z,18.23
2017-09-20T22:40:42.926Z,19.90
2017-09-20T22:43:10.504Z,16.13
2017-09-20T22:45:38.062Z,15.47
2017-09-20T22:48:05.629Z,23.70
2017-09-20T22:50:34.436Z,17.03
2017-09-20T22:53:02.012Z,16.90
2017-09-20T22:55:29.703Z,17.30
2017-09-20T22:57:57.785Z,17.50
2017-09-20T23:00:25.378Z,18.20
2017-09-20T23:02:52.962Z,18.23
2017-09-20T23:05:20.911Z,22.20
2017-09-20T23:07:48.488Z,23.60
2017-09-20T23:10:16.068Z,20.37
2017-09-20T23:12:43.644Z,26.67
2017-09-20T23:15:11.225Z,19.37
2017-09-20T23:17:38.887Z,25.30
2017-09-20T23:20:06.441Z,23.67
2017-09-20T23:22:34.041Z,24.17
2017-09-20T23:25:01.615Z,23.47
2017-09-20T23:27:29.226Z,22.73
2017-09-20T23:29:56.796Z,28.40
2017-09-20T23:32:24.790Z,25.70
2017-09-20T23:34:52.367Z,25.10
2017-09-20T23:37:19.937Z,22.47
2017-09-20T23:39:47.598Z,23.63
2017-09-20T23:42:15.289Z,26.37
2017-09-20T23:44:43.018Z,24.57
2017-09-20T23:47:10.591Z,28.47
2017-09-20T23:49:38.169Z,19.97
2017-09-20T23:52:05.750Z,21.53
2017-09-20T23:54:33.333Z,24.00
2017-09-20T23:57:01.003Z,24.20
2017-09-20T23:59:29.039Z,24.83
